Time;durP1;ratioP1;P1;durP2;ratioP2;P2;SDS_P1;SDS_P2;PMS_P1;PMS_P2;Temp;Humidity;BMP_temperature;BMP_pressure;BME280_temperature;BME280_humidity;BME280_pressure;Samples;Min_cycle;Max_cycle;Signal;HPM_P1;HPM_P2
2023/02/08 00:00:14;;;;;;;15.23;9.88;;;0.90;99.90;;;;;;4999800;28;20034;-43
2023/02/08 00:02:40;;;;;;;14.07;9.20;;;0.90;99.90;;;;;;5001147;28;20025;-43
2023/02/08 00:05:06;;;;;;;15.45;10.23;;;0.90;99.90;;;;;;5000990;28;20153;-43
2023/02/08 00:07:31;;;;;;;16.40;10.80;;;0.90;99.90;;;;;;4998581;28;20030;-43
2023/02/08 00:09:57;;;;;;;15.27;11.02;;;0.90;99.90;;;;;;5001013;28;20026;-43
2023/02/08 00:12:22;;;;;;;14.88;9.82;;;0.90;99.90;;;;;;5000771;28;20720;-43
2023/02/08 00:14:48;;;;;;;15.23;10.40;;;0.80;99.90;;;;;;5000370;28;20099;-42
2023/02/08 00:17:13;;;;;;;14.45;10.38;;;0.80;99.90;;;;;;5000642;28;20079;-43
2023/02/08 00:19:39;;;;;;;13.43;9.77;;;0.80;99.90;;;;;;5000868;28;20133;-43
2023/02/08 00:22:05;;;;;;;14.13;9.80;;;0.80;99.90;;;;;;5000589;28;20382;-42
2023/02/08 00:24:30;;;;;;;13.45;9.15;;;0.70;99.90;;;;;;5001246;28;20026;-43
2023/02/08 00:26:56;;;;;;;12.70;9.80;;;0.70;99.90;;;;;;5000326;28;20028;-44
2023/02/08 00:29:21;;;;;;;12.73;8.98;;;0.80;99.90;;;;;;5001439;28;20036;-42
2023/02/08 00:31:47;;;;;;;13.18;8.73;;;0.80;99.90;;;;;;5000973;28;20030;-43
2023/02/08 00:34:12;;;;;;;12.00;8.85;;;0.80;99.90;;;;;;5000662;28;20808;-44
2023/02/08 00:36:38;;;;;;;12.98;9.32;;;0.80;99.90;;;;;;4999936;28;20556;-43
2023/02/08 00:39:03;;;;;;;12.18;8.73;;;0.80;99.90;;;;;;5000717;28;20127;-43
2023/02/08 00:41:29;;;;;;;13.10;9.75;;;0.90;99.90;;;;;;5000831;28;20034;-42
2023/02/08 00:43:54;;;;;;;13.40;9.25;;;0.90;99.90;;;;;;5000647;28;20390;-42
2023/02/08 00:46:20;;;;;;;13.82;9.48;;;0.90;99.90;;;;;;5000265;28;20785;-42
2023/02/08 00:48:46;;;;;;;13.88;9.52;;;0.90;99.90;;;;;;4999863;28;20029;-43
2023/02/08 00:51:13;;;;;;;13.18;9.88;;;0.80;99.90;;;;;;5000636;28;20723;-43
2023/02/08 00:53:41;;;;;;;13.18;9.60;;;0.80;99.90;;;;;;5001585;28;20084;-44
2023/02/08 00:56:08;;;;;;;13.52;10.10;;;0.80;99.90;;;;;;5003552;28;20402;-44
2023/02/08 00:58:34;;;;;;;12.63;9.48;;;0.80;99.90;;;;;;5004303;28;20038;-44
2023/02/08 01:01:00;;;;;;;12.90;9.85;;;0.80;99.90;;;;;;5004793;28;20030;-43
2023/02/08 01:03:26;;;;;;;12.50;9.52;;;0.80;99.90;;;;;;5003659;28;20055;-43
2023/02/08 01:05:52;;;;;;;14.95;10.10;;;0.80;99.90;;;;;;5003633;28;20759;-42
2023/02/08 01:08:19;;;;;;;12.85;9.57;;;0.80;99.90;;;;;;5004202;28;20022;-44
2023/02/08 01:10:46;;;;;;;11.25;8.98;;;0.80;99.90;;;;;;5003741;28;20044;-44
2023/02/08 01:13:12;;;;;;;12.38;9.32;;;0.80;99.90;;;;;;5003761;28;20151;-43
2023/02/08 01:15:37;;;;;;;11.30;9.05;;;0.80;99.90;;;;;;5004327;28;20556;-43
2023/02/08 01:18:04;;;;;;;11.18;8.75;;;0.80;99.90;;;;;;5002706;28;20026;-43
2023/02/08 01:20:33;;;;;;;11.40;9.18;;;0.80;99.90;;;;;;5004139;28;20061;-44
2023/02/08 01:22:58;;;;;;;10.75;8.57;;;0.70;99.90;;;;;;5003708;28;20504;-44
2023/02/08 01:25:24;;;;;;;11.13;8.45;;;0.70;99.90;;;;;;5003307;28;20526;-43
2023/02/08 01:27:49;;;;;;;11.98;9.00;;;0.70;99.90;;;;;;5003227;28;20029;-44
2023/02/08 01:30:16;;;;;;;12.98;9.05;;;0.60;99.90;;;;;;5003712;28;20026;-43
2023/02/08 01:32:41;;;;;;;12.13;9.23;;;0.60;99.90;;;;;;5003979;28;20101;-43
2023/02/08 01:35:07;;;;;;;11.13;8.63;;;0.60;99.90;;;;;;5003572;28;20547;-42
2023/02/08 01:37:32;;;;;;;11.80;9.23;;;0.60;99.90;;;;;;5002790;28;20087;-42
2023/02/08 01:39:58;;;;;;;11.65;8.77;;;0.50;99.90;;;;;;5003055;28;20040;-43
2023/02/08 01:42:25;;;;;;;10.43;8.05;;;0.50;99.90;;;;;;5003640;28;20057;-44
2023/02/08 01:45:19;;;;;;;11.30;8.68;;;0.50;99.90;;;;;;5003006;28;20389;-43
2023/02/08 01:47:58;;;;;;;11.85;8.70;;;0.50;99.90;;;;;;5003627;28;20041;-44
2023/02/08 01:50:29;;;;;;;11.63;8.55;;;0.50;99.90;;;;;;4993894;28;20045;-43
2023/02/08 01:52:55;;;;;;;10.95;8.25;;;0.50;99.90;;;;;;5002759;28;20030;-43
2023/02/08 01:55:32;;;;;;;11.48;8.50;;;0.40;99.90;;;;;;5004296;28;20496;-43
2023/02/08 01:58:01;;;;;;;12.73;9.35;;;0.40;99.90;;;;;;5003720;28;20029;-44
2023/02/08 02:00:27;;;;;;;11.38;8.52;;;0.30;99.90;;;;;;5002894;28;20046;-44
2023/02/08 02:02:55;;;;;;;13.50;9.48;;;0.30;99.90;;;;;;5003611;28;20026;-44
2023/02/08 02:05:25;;;;;;;11.48;9.32;;;0.30;99.90;;;;;;5003059;28;20025;-43
2023/02/08 02:07:52;;;;;;;11.57;9.00;;;0.30;99.90;;;;;;5002508;28;20625;-43
2023/02/08 02:10:23;;;;;;;11.57;8.82;;;0.40;99.90;;;;;;5003087;28;20068;-43
2023/02/08 02:12:49;;;;;;;12.48;9.02;;;0.40;99.90;;;;;;5002370;28;20038;-43
2023/02/08 02:15:15;;;;;;;12.85;8.38;;;0.40;99.90;;;;;;5001481;28;20682;-43
2023/02/08 02:17:41;;;;;;;10.20;7.75;;;0.40;99.90;;;;;;5002847;28;20025;-43
2023/02/08 02:20:38;;;;;;;10.98;8.68;;;0.40;99.90;;;;;;5002852;28;20119;-44
2023/02/08 02:23:18;;;;;;;12.32;8.63;;;0.30;99.90;;;;;;4984048;28;20110;-44
2023/02/08 02:26:21;;;;;;;10.80;8.70;;;0.30;99.90;;;;;;5000952;28;20568;-44
2023/02/08 02:29:17;;;;;;;11.90;9.20;;;0.30;99.90;;;;;;5002897;28;20045;-44
2023/02/08 02:31:58;;;;;;;13.35;9.52;;;0.30;99.90;;;;;;5002623;28;20033;-43
2023/02/08 02:34:47;;;;;;;12.05;8.90;;;0.30;99.90;;;;;;5002257;28;20045;-44
2023/02/08 02:37:37;;;;;;;10.73;8.48;;;0.30;99.90;;;;;;4994258;28;20073;-43
2023/02/08 02:40:14;;;;;;;12.25;8.65;;;0.40;99.90;;;;;;5002013;28;20084;-44
2023/02/08 02:46:05;;;;;;;12.35;8.18;;;0.40;99.90;;;;;;5002200;28;20398;-44
2023/02/08 02:48:44;;;;;;;10.85;8.40;;;0.40;99.90;;;;;;5001643;28;20030;-42
2023/02/08 02:51:24;;;;;;;10.73;7.75;;;0.40;99.90;;;;;;5002076;28;20025;-43
2023/02/08 02:54:15;;;;;;;12.20;8.63;;;0.40;99.90;;;;;;4982557;28;20108;-43
2023/02/08 02:56:44;;;;;;;12.05;8.68;;;0.40;99.90;;;;;;4999105;28;20504;-42
2023/02/08 02:59:12;;;;;;;11.50;8.90;;;0.40;99.90;;;;;;5001879;28;20055;-43
2023/02/08 03:01:38;;;;;;;11.38;7.78;;;0.40;99.90;;;;;;5001773;28;20033;-43
2023/02/08 03:04:17;;;;;;;13.45;8.70;;;0.40;99.90;;;;;;5001637;28;20112;-43
2023/02/08 03:07:08;;;;;;;11.48;8.13;;;0.40;99.90;;;;;;5001840;28;20064;-43
2023/02/08 03:09:44;;;;;;;12.93;9.27;;;0.40;99.90;;;;;;4982186;28;20073;-44
2023/02/08 03:12:31;;;;;;;11.00;8.20;;;0.30;99.90;;;;;;4998664;28;20545;-44
2023/02/08 03:15:14;;;;;;;11.13;8.27;;;0.30;99.90;;;;;;5001600;28;20033;-43
2023/02/08 03:18:03;;;;;;;11.27;8.77;;;0.30;99.90;;;;;;5000266;28;20321;-44
2023/02/08 03:20:32;;;;;;;13.50;9.77;;;0.20;99.90;;;;;;5001822;28;20045;-44
2023/02/08 03:23:17;;;;;;;12.68;9.00;;;0.20;99.90;;;;;;5001066;28;20541;-44
2023/02/08 03:25:52;;;;;;;14.00;9.90;;;0.20;99.90;;;;;;5000613;28;20037;-43
2023/02/08 03:28:35;;;;;;;11.90;8.63;;;0.10;99.90;;;;;;4998959;28;20136;-44
2023/02/08 03:31:25;;;;;;;11.98;8.73;;;0.20;99.90;;;;;;5000774;28;20026;-43
2023/02/08 03:34:11;;;;;;;12.35;8.85;;;0.20;99.90;;;;;;4990582;28;20127;-43
2023/02/08 03:36:50;;;;;;;12.57;8.98;;;0.20;99.90;;;;;;5001230;28;20030;-44
2023/02/08 03:39:22;;;;;;;13.95;9.73;;;0.20;99.90;;;;;;5000779;28;20042;-44
2023/02/08 03:41:52;;;;;;;13.65;9.70;;;0.20;99.90;;;;;;5001547;28;20121;-44
2023/02/08 03:44:23;;;;;;;16.75;10.80;;;0.20;99.90;;;;;;5001846;28;20038;-43
2023/02/08 03:46:58;;;;;;;14.65;10.25;;;0.20;99.90;;;;;;5000594;28;20750;-43
2023/02/08 03:49:29;;;;;;;13.05;9.35;;;0.30;99.90;;;;;;5001773;28;20083;-43
2023/02/08 03:51:58;;;;;;;12.88;9.55;;;0.30;99.90;;;;;;5001050;28;20384;-43
2023/02/08 03:54:26;;;;;;;14.50;10.38;;;0.30;99.90;;;;;;5000643;28;20036;-43
2023/02/08 03:57:20;;;;;;;16.17;9.90;;;0.30;99.90;;;;;;4999614;28;20037;-44
2023/02/08 03:59:53;;;;;;;14.77;9.80;;;0.30;99.90;;;;;;4990211;28;20049;-44
2023/02/08 04:02:22;;;;;;;13.50;9.40;;;0.30;99.90;;;;;;5001319;28;20034;-43
2023/02/08 04:04:50;;;;;;;13.30;9.20;;;0.40;99.90;;;;;;5000767;28;20146;-45
2023/02/08 04:07:18;;;;;;;11.23;8.40;;;0.30;99.90;;;;;;5000659;28;20064;-44
2023/02/08 04:09:44;;;;;;;12.90;8.88;;;0.30;99.90;;;;;;5000760;28;20085;-43
2023/02/08 04:12:10;;;;;;;11.73;8.32;;;0.30;99.90;;;;;;5000883;28;20018;-44
2023/02/08 04:14:35;;;;;;;10.90;7.80;;;0.30;99.90;;;;;;5000745;28;20401;-43
2023/02/08 04:17:01;;;;;;;10.68;7.97;;;0.30;99.90;;;;;;5000394;28;20481;-44
2023/02/08 04:19:27;;;;;;;12.88;8.65;;;0.30;99.90;;;;;;5000394;28;20776;-44
2023/02/08 04:21:52;;;;;;;12.15;8.73;;;0.30;99.90;;;;;;4999969;28;20708;-45
2023/02/08 04:24:19;;;;;;;15.20;10.45;;;0.30;99.90;;;;;;5001079;28;20072;-44
2023/02/08 04:26:44;;;;;;;13.80;9.93;;;0.30;99.90;;;;;;5000161;28;20030;-44
2023/02/08 04:29:10;;;;;;;15.18;9.60;;;0.30;99.90;;;;;;4999880;28;20705;-44
2023/02/08 04:31:35;;;;;;;12.07;9.20;;;0.40;99.90;;;;;;5004917;28;20485;-43
2023/02/08 04:34:01;;;;;;;11.23;8.27;;;0.40;99.90;;;;;;5004722;28;20022;-44
2023/02/08 04:36:27;;;;;;;12.10;8.27;;;0.30;99.90;;;;;;5004799;28;20023;-43
2023/02/08 04:38:53;;;;;;;12.43;8.50;;;0.30;99.90;;;;;;5004553;28;20045;-44
2023/02/08 04:41:18;;;;;;;12.63;8.55;;;0.30;99.90;;;;;;5004093;28;20041;-44
2023/02/08 04:43:44;;;;;;;12.55;8.52;;;0.30;99.90;;;;;;5003670;28;20018;-44
2023/02/08 04:46:10;;;;;;;12.02;8.48;;;0.20;99.90;;;;;;5004175;28;20029;-45
2023/02/08 04:48:36;;;;;;;13.15;8.52;;;0.20;99.90;;;;;;5003113;28;20045;-44
2023/02/08 04:51:01;;;;;;;13.45;8.40;;;0.20;99.90;;;;;;5003835;28;20026;-43
2023/02/08 04:53:27;;;;;;;13.57;8.57;;;0.20;99.90;;;;;;5005247;28;20033;-43
2023/02/08 04:55:52;;;;;;;12.18;8.60;;;0.10;99.90;;;;;;5003574;28;20065;-44
2023/02/08 04:58:18;;;;;;;12.93;8.85;;;0.10;99.90;;;;;;5004705;28;20058;-44
2023/02/08 05:00:44;;;;;;;11.90;8.38;;;0.10;99.90;;;;;;5004176;28;20870;-44
2023/02/08 05:03:10;;;;;;;12.52;9.07;;;0.10;99.90;;;;;;5003756;28;20026;-44
2023/02/08 05:05:42;;;;;;;13.15;8.73;;;0.00;99.90;;;;;;5004135;28;20599;-44
2023/02/08 05:08:07;;;;;;;12.07;8.10;;;0.00;99.90;;;;;;5004011;28;20026;-43
2023/02/08 05:10:33;;;;;;;12.57;8.93;;;0.00;99.90;;;;;;5003783;28;20648;-43
2023/02/08 05:12:58;;;;;;;11.48;8.70;;;0.00;99.90;;;;;;5003843;28;20131;-45
2023/02/08 05:15:24;;;;;;;12.43;8.65;;;0.00;99.90;;;;;;5003236;28;20822;-45
2023/02/08 05:17:50;;;;;;;13.15;8.32;;;-0.10;99.90;;;;;;5003505;28;20464;-44
2023/02/08 05:20:18;;;;;;;14.18;9.45;;;-0.10;99.90;;;;;;5003550;28;20065;-45
2023/02/08 05:22:44;;;;;;;11.50;8.80;;;-0.10;99.90;;;;;;5003754;28;20214;-43
2023/02/08 05:25:09;;;;;;;10.52;8.23;;;-0.10;99.90;;;;;;5003536;28;20827;-43
2023/02/08 05:27:36;;;;;;;13.23;8.90;;;-0.10;99.90;;;;;;5003729;28;20157;-44
2023/02/08 05:30:03;;;;;;;12.35;8.65;;;-0.10;99.90;;;;;;5003545;28;20136;-44
2023/02/08 05:32:28;;;;;;;12.52;8.23;;;-0.10;99.90;;;;;;5003503;28;20176;-43
2023/02/08 05:34:54;;;;;;;13.35;8.93;;;-0.10;99.90;;;;;;5003252;28;20576;-44
2023/02/08 05:37:20;;;;;;;12.93;8.48;;;-0.10;99.90;;;;;;5002813;28;20026;-44
2023/02/08 05:39:45;;;;;;;12.27;8.40;;;-0.10;99.90;;;;;;5002954;28;20056;-44
2023/02/08 05:42:11;;;;;;;13.25;8.38;;;-0.10;99.90;;;;;;5003123;28;20041;-43
2023/02/08 05:44:36;;;;;;;15.18;9.82;;;-0.10;99.90;;;;;;5003347;28;20031;-43
2023/02/08 05:47:02;;;;;;;14.48;10.20;;;-0.10;99.90;;;;;;5003854;28;20042;-44
2023/02/08 05:49:28;;;;;;;16.75;10.95;;;-0.10;99.90;;;;;;5003131;28;20034;-43
2023/02/08 05:51:54;;;;;;;17.75;11.50;;;-0.10;99.90;;;;;;5002213;28;20036;-43
2023/02/08 05:54:19;;;;;;;25.42;14.02;;;-0.10;99.90;;;;;;5002808;28;20029;-43
2023/02/08 05:56:45;;;;;;;17.48;11.35;;;-0.10;99.90;;;;;;5002842;28;20025;-44
2023/02/08 05:59:10;;;;;;;17.60;11.50;;;-0.10;99.90;;;;;;5002760;28;20041;-44
2023/02/08 06:01:39;;;;;;;15.27;10.48;;;-0.10;99.90;;;;;;5003018;28;20026;-43
2023/02/08 06:04:05;;;;;;;15.18;10.70;;;-0.10;99.90;;;;;;5002980;28;20403;-44
2023/02/08 06:06:30;;;;;;;16.10;11.27;;;-0.10;99.90;;;;;;5002522;28;20465;-44
2023/02/08 06:08:56;;;;;;;16.50;11.35;;;-0.10;99.90;;;;;;5002815;28;20600;-43
2023/02/08 06:11:21;;;;;;;18.17;11.65;;;-0.10;99.90;;;;;;5003344;28;20433;-43
2023/02/08 06:13:47;;;;;;;16.92;11.48;;;-0.10;99.90;;;;;;5002710;28;20037;-43
2023/02/08 06:16:14;;;;;;;17.00;12.02;;;-0.10;99.90;;;;;;5003311;28;20033;-43
2023/02/08 06:18:39;;;;;;;17.42;11.32;;;-0.10;99.90;;;;;;5002187;28;20080;-43
2023/02/08 06:21:05;;;;;;;19.40;12.25;;;-0.20;99.90;;;;;;5002623;28;20038;-43
2023/02/08 06:23:32;;;;;;;19.58;12.85;;;-0.10;99.90;;;;;;5002544;28;20553;-44
2023/02/08 06:25:57;;;;;;;17.38;12.18;;;-0.20;99.90;;;;;;5003036;28;20062;-44
2023/02/08 06:28:23;;;;;;;18.02;11.88;;;-0.20;99.90;;;;;;5002107;28;20022;-43
2023/02/08 06:30:50;;;;;;;16.40;12.50;;;-0.20;99.90;;;;;;5002456;28;20026;-43
2023/02/08 06:33:17;;;;;;;18.27;11.82;;;-0.20;99.90;;;;;;5002126;28;20588;-44
2023/02/08 06:35:47;;;;;;;15.80;11.18;;;-0.20;99.90;;;;;;5001859;28;20057;-44
2023/02/08 06:38:13;;;;;;;17.67;12.15;;;-0.20;99.90;;;;;;5002363;28;20040;-45
2023/02/08 06:40:39;;;;;;;17.55;11.95;;;-0.20;99.90;;;;;;5002112;28;20083;-44
2023/02/08 06:43:04;;;;;;;15.93;11.10;;;-0.20;99.90;;;;;;5001919;28;20037;-44
2023/02/08 06:45:30;;;;;;;14.73;11.02;;;-0.20;99.90;;;;;;5002358;28;20029;-44
2023/02/08 06:47:58;;;;;;;14.63;10.27;;;-0.20;99.90;;;;;;5001580;28;20516;-44
2023/02/08 06:50:24;;;;;;;16.73;11.38;;;-0.20;99.90;;;;;;4989019;28;20048;-44
2023/02/08 06:52:49;;;;;;;15.82;10.60;;;-0.20;99.90;;;;;;5000038;28;20489;-44
2023/02/08 06:55:15;;;;;;;15.23;10.40;;;-0.20;99.90;;;;;;5001465;28;20040;-44
2023/02/08 06:57:41;;;;;;;15.20;10.10;;;-0.20;99.90;;;;;;5001864;28;20022;-44
2023/02/08 07:00:07;;;;;;;16.63;10.35;;;-0.20;99.90;;;;;;5001601;28;20047;-44
2023/02/08 07:02:32;;;;;;;16.98;11.25;;;-0.20;99.90;;;;;;5001340;28;20029;-44
2023/02/08 07:04:58;;;;;;;15.02;10.70;;;-0.20;99.90;;;;;;5000949;28;20387;-44
2023/02/08 07:07:24;;;;;;;13.43;10.02;;;-0.20;99.90;;;;;;4996423;28;20541;-44
2023/02/08 07:09:49;;;;;;;16.73;11.80;;;-0.20;99.90;;;;;;4999897;28;20026;-44
2023/02/08 07:12:15;;;;;;;15.80;11.38;;;-0.20;99.90;;;;;;5000989;28;20029;-44
2023/02/08 07:14:42;;;;;;;16.55;11.05;;;-0.20;99.90;;;;;;5001048;28;20026;-44
2023/02/08 07:17:08;;;;;;;17.42;11.40;;;-0.20;99.90;;;;;;5001190;28;20058;-44
2023/02/08 07:19:34;;;;;;;18.23;10.50;;;-0.20;99.90;;;;;;5001023;28;20068;-44
2023/02/08 07:22:09;;;;;;;15.50;11.07;;;-0.20;99.90;;;;;;5000865;28;20124;-44
2023/02/08 07:24:39;;;;;;;18.52;11.60;;;-0.20;99.90;;;;;;5000911;28;20108;-43
2023/02/08 07:27:07;;;;;;;16.13;10.50;;;-0.20;99.90;;;;;;5000552;28;20100;-44
2023/02/08 07:29:33;;;;;;;15.45;11.57;;;-0.20;99.90;;;;;;4999833;28;20101;-45
2023/02/08 07:32:00;;;;;;;14.00;10.05;;;-0.20;99.90;;;;;;5000348;28;20501;-44
2023/02/08 07:34:32;;;;;;;14.23;9.75;;;-0.20;99.90;;;;;;4993797;28;20046;-44
2023/02/08 07:36:57;;;;;;;16.05;10.38;;;-0.20;99.90;;;;;;4989809;28;20033;-43
2023/02/08 07:39:25;;;;;;;15.20;9.57;;;-0.20;99.90;;;;;;5000339;28;20488;-44
2023/02/08 07:41:51;;;;;;;13.50;9.23;;;-0.10;99.90;;;;;;5000343;28;20030;-43
2023/02/08 07:44:16;;;;;;;14.80;10.68;;;-0.10;99.90;;;;;;5000829;28;20509;-43
2023/02/08 07:46:42;;;;;;;17.52;11.48;;;-0.10;99.90;;;;;;5000605;28;20028;-44
2023/02/08 07:49:08;;;;;;;15.48;10.80;;;-0.10;99.90;;;;;;5000870;28;20026;-43
2023/02/08 07:51:33;;;;;;;19.73;12.38;;;-0.10;99.90;;;;;;5000729;28;20014;-44
2023/02/08 07:53:59;;;;;;;18.17;11.23;;;-0.10;99.90;;;;;;5000586;28;20095;-44
2023/02/08 07:56:24;;;;;;;15.13;10.80;;;-0.10;99.90;;;;;;5000540;28;20041;-45
2023/02/08 07:58:50;;;;;;;14.13;10.43;;;-0.10;99.90;;;;;;5000175;28;20046;-44
2023/02/08 08:01:16;;;;;;;15.43;10.52;;;0.00;99.90;;;;;;5000777;28;20034;-44
2023/02/08 08:03:41;;;;;;;18.35;10.48;;;0.00;99.90;;;;;;5000196;28;20037;-44
2023/02/08 08:06:07;;;;;;;15.85;10.55;;;0.00;99.90;;;;;;5000206;28;20432;-44
2023/02/08 08:08:32;;;;;;;14.95;9.85;;;0.10;99.90;;;;;;5001681;28;20146;-44
2023/02/08 08:10:58;;;;;;;14.98;10.32;;;0.10;99.90;;;;;;5000819;28;20076;-44
2023/02/08 08:13:24;;;;;;;16.00;11.10;;;0.10;99.90;;;;;;5000578;28;20033;-44
2023/02/08 08:15:52;;;;;;;12.80;9.82;;;0.10;99.90;;;;;;5000826;28;20081;-43
2023/02/08 08:18:17;;;;;;;13.07;9.75;;;0.20;99.90;;;;;;5000086;28;20477;-44
2023/02/08 08:20:43;;;;;;;14.85;9.88;;;0.20;99.90;;;;;;4999852;28;20080;-44
2023/02/08 08:23:08;;;;;;;14.98;9.32;;;0.20;99.90;;;;;;5001069;28;20034;-43
2023/02/08 08:25:35;;;;;;;12.80;9.63;;;0.30;99.90;;;;;;5000701;28;20038;-43
2023/02/08 08:28:01;;;;;;;14.52;9.70;;;0.30;99.90;;;;;;4999756;28;20206;-44
2023/02/08 08:30:27;;;;;;;16.48;10.57;;;0.40;99.90;;;;;;5000792;28;20519;-43
2023/02/08 08:32:52;;;;;;;15.68;10.27;;;0.40;99.90;;;;;;5000043;28;20029;-44
2023/02/08 08:35:18;;;;;;;15.52;9.60;;;0.40;99.90;;;;;;5000085;28;20058;-44
2023/02/08 08:37:44;;;;;;;14.18;9.43;;;0.50;99.90;;;;;;5000428;28;20030;-43
2023/02/08 08:40:09;;;;;;;12.95;8.63;;;0.50;99.90;;;;;;5000954;28;20507;-44
2023/02/08 08:42:35;;;;;;;11.95;8.70;;;0.60;99.90;;;;;;5000294;28;20084;-44
2023/02/08 08:45:02;;;;;;;14.80;9.43;;;0.60;99.90;;;;;;5000261;28;20026;-44
2023/02/08 08:47:28;;;;;;;13.38;8.13;;;0.70;99.90;;;;;;5000971;28;20037;-44
2023/02/08 08:49:53;;;;;;;12.95;8.73;;;0.70;99.90;;;;;;5000726;28;20025;-43
2023/02/08 08:52:19;;;;;;;14.13;8.40;;;0.80;99.90;;;;;;5000405;28;20042;-43
2023/02/08 08:54:45;;;;;;;12.93;8.63;;;0.80;99.90;;;;;;5000565;28;20768;-44
2023/02/08 08:57:10;;;;;;;11.57;8.63;;;0.80;99.90;;;;;;5000769;28;20119;-43
2023/02/08 08:59:36;;;;;;;13.52;9.38;;;0.90;99.90;;;;;;5000289;28;20103;-43
2023/02/08 09:02:01;;;;;;;12.25;7.97;;;0.90;99.90;;;;;;5000014;28;20032;-42
2023/02/08 09:04:27;;;;;;;12.02;8.50;;;1.00;99.90;;;;;;5000879;28;20041;-44
2023/02/08 09:06:53;;;;;;;11.18;8.57;;;1.00;99.90;;;;;;5000293;28;20022;-44
2023/02/08 09:09:19;;;;;;;11.45;7.75;;;1.00;99.90;;;;;;5000003;28;20141;-45
2023/02/08 09:11:45;;;;;;;11.27;8.02;;;1.10;99.90;;;;;;5000675;28;20105;-43
2023/02/08 09:14:11;;;;;;;11.23;8.18;;;1.10;99.90;;;;;;5000481;28;20397;-44
2023/02/08 09:16:39;;;;;;;11.68;7.88;;;1.20;99.90;;;;;;5003370;28;20026;-44
2023/02/08 09:19:07;;;;;;;10.57;7.75;;;1.20;99.90;;;;;;5004409;28;20048;-44
2023/02/08 09:21:33;;;;;;;11.18;7.85;;;1.20;99.90;;;;;;5004109;28;20030;-43
2023/02/08 09:24:00;;;;;;;10.27;7.80;;;1.30;99.90;;;;;;5003996;28;20037;-44
2023/02/08 09:26:26;;;;;;;10.05;7.15;;;1.30;99.90;;;;;;5003922;28;20034;-44
2023/02/08 09:28:52;;;;;;;12.57;7.38;;;1.40;99.90;;;;;;5003386;28;20018;-44
2023/02/08 09:31:22;;;;;;;9.23;7.35;;;1.40;99.90;;;;;;5002962;28;20037;-43
2023/02/08 09:33:51;;;;;;;11.38;8.07;;;1.40;99.90;;;;;;4990766;28;20034;-43
2023/02/08 09:36:18;;;;;;;10.65;7.25;;;1.50;99.90;;;;;;5003036;28;20464;-43
2023/02/08 09:38:45;;;;;;;10.02;7.38;;;1.50;99.90;;;;;;5002497;28;20409;-43
2023/02/08 09:41:28;;;;;;;11.30;7.93;;;1.60;99.90;;;;;;5002150;28;20029;-43
2023/02/08 09:44:15;;;;;;;12.25;7.93;;;1.60;99.90;;;;;;5002906;28;20038;-42
2023/02/08 09:46:49;;;;;;;10.00;7.78;;;1.70;99.90;;;;;;5003367;28;20485;-43
2023/02/08 09:49:22;;;;;;;10.63;7.50;;;1.80;99.90;;;;;;5002583;28;20121;-43
2023/02/08 09:52:05;;;;;;;11.32;7.57;;;1.80;99.90;;;;;;5002836;28;20030;-43
2023/02/08 09:54:36;;;;;;;9.38;6.75;;;1.90;99.90;;;;;;5003206;28;20080;-43
2023/02/08 09:57:08;;;;;;;10.50;7.40;;;1.90;99.90;;;;;;5002902;28;20026;-43
2023/02/08 09:59:35;;;;;;;9.35;6.50;;;1.90;99.90;;;;;;5002864;28;20038;-44
2023/02/08 10:02:28;;;;;;;8.43;6.32;;;2.00;99.90;;;;;;5003538;28;20026;-43
2023/02/08 10:04:54;;;;;;;;;;;2.10;99.90;;;;;;5002908;28;20026;-43
2023/02/08 10:07:19;;;;;;;10.18;6.97;;;2.10;99.90;;;;;;5003357;28;19909;-43
2023/02/08 10:09:45;;;;;;;8.90;6.53;;;2.20;99.90;;;;;;5001523;28;20037;-46
2023/02/08 10:12:22;;;;;;;9.65;6.40;;;2.20;99.90;;;;;;5002250;28;20018;-42
2023/02/08 10:15:08;;;;;;;11.38;7.03;;;2.30;99.90;;;;;;5003203;28;20032;-43
2023/02/08 10:17:56;;;;;;;8.65;6.13;;;2.30;99.90;;;;;;4994129;28;20029;-43
2023/02/08 10:20:25;;;;;;;8.68;6.13;;;2.40;99.90;;;;;;5002341;28;20117;-43
2023/02/08 10:23:12;;;;;;;10.45;7.63;;;2.40;99.90;;;;;;5002213;28;20030;-43
2023/02/08 10:26:42;;;;;;;11.68;7.22;;;2.50;99.90;;;;;;5002379;28;20108;-42
2023/02/08 10:29:30;;;;;;;12.65;6.78;;;2.60;99.90;;;;;;4998533;28;20749;-43
2023/02/08 10:32:34;;;;;;;8.88;6.72;;;2.70;99.90;;;;;;4999244;28;20041;-43
2023/02/08 10:35:26;;;;;;;9.07;6.75;;;2.80;99.90;;;;;;5001893;28;20115;-43
2023/02/08 10:37:52;;;;;;;10.93;7.07;;;2.80;99.90;;;;;;5001104;28;20040;-44
2023/02/08 10:40:17;;;;;;;8.95;7.00;;;2.90;99.90;;;;;;5001449;28;20048;-43
2023/02/08 10:42:50;;;;;;;11.45;7.43;;;3.00;99.90;;;;;;4998648;28;20029;-44
2023/02/08 10:45:26;;;;;;;9.88;6.82;;;3.00;99.90;;;;;;5001601;28;20044;-43
2023/02/08 10:47:56;;;;;;;10.02;7.07;;;3.10;99.90;;;;;;5001851;28;20053;-43
2023/02/08 10:50:33;;;;;;;12.73;7.53;;;3.20;99.90;;;;;;5002361;28;20131;-42
2023/02/08 10:52:58;;;;;;;10.48;7.30;;;3.20;99.90;;;;;;5001356;28;20022;-42
2023/02/08 10:55:24;;;;;;;8.68;6.38;;;3.30;99.90;;;;;;5002071;28;20043;-43
2023/02/08 10:57:54;;;;;;;9.05;6.70;;;3.30;99.90;;;;;;5001533;28;20553;-42
2023/02/08 11:00:25;;;;;;;8.80;6.47;;;3.40;99.90;;;;;;5001754;28;20049;-42
2023/02/08 11:02:51;;;;;;;7.88;6.32;;;3.50;99.90;;;;;;5000609;28;20088;-43
2023/02/08 11:05:37;;;;;;;8.30;6.32;;;3.50;99.90;;;;;;5001990;28;20034;-44
2023/02/08 11:08:18;;;;;;;9.23;6.13;;;3.60;99.90;;;;;;5000632;28;20030;-42
2023/02/08 11:11:10;;;;;;;9.10;6.05;;;3.60;99.90;;;;;;5001257;28;20826;-44
2023/02/08 11:13:47;;;;;;;7.30;5.50;;;3.70;99.90;;;;;;5001148;28;20026;-43
2023/02/08 11:16:25;;;;;;;8.95;5.93;;;3.70;99.90;;;;;;5000906;28;20046;-43
2023/02/08 11:18:54;;;;;;;8.45;5.82;;;3.80;99.90;;;;;;5000808;28;20045;-43
2023/02/08 11:21:20;;;;;;;8.50;6.15;;;3.80;99.90;;;;;;5001561;28;20037;-43
2023/02/08 11:23:50;;;;;;;10.35;5.80;;;3.90;99.90;;;;;;5000559;28;20422;-43
2023/02/08 11:26:38;;;;;;;8.38;5.70;;;3.90;99.90;;;;;;5001098;28;20033;-43
2023/02/08 11:29:25;;;;;;;7.47;5.78;;;3.90;99.90;;;;;;5000883;28;20030;-43
2023/02/08 11:32:13;;;;;;;9.45;5.07;;;4.00;99.90;;;;;;5001256;28;20100;-43
2023/02/08 11:34:39;;;;;;;7.90;5.18;;;4.00;99.90;;;;;;4998212;28;20065;-44
2023/02/08 11:37:20;;;;;;;7.07;5.40;;;4.00;99.90;;;;;;5001170;28;20030;-43
2023/02/08 11:39:59;;;;;;;8.15;5.80;;;4.10;99.90;;;;;;4998831;28;20116;-43
2023/02/08 11:42:35;;;;;;;7.93;5.25;;;4.10;99.90;;;;;;5001337;28;20026;-43
2023/02/08 11:45:00;;;;;;;6.75;5.18;;;4.10;99.90;;;;;;5000381;28;20026;-43
2023/02/08 11:47:35;;;;;;;8.35;6.32;;;4.20;99.90;;;;;;5001145;28;20026;-44
2023/02/08 11:50:07;;;;;;;7.57;5.90;;;4.20;99.90;;;;;;4997868;28;20528;-44
2023/02/08 11:52:35;;;;;;;9.75;5.75;;;4.20;99.90;;;;;;5001061;28;20046;-44
2023/02/08 11:55:23;;;;;;;7.13;5.35;;;4.30;99.90;;;;;;5000585;28;20032;-44
2023/02/08 11:58:04;;;;;;;8.38;5.22;;;4.30;99.90;;;;;;5001542;28;20030;-43
2023/02/08 12:00:34;;;;;;;5.90;4.30;;;4.40;99.90;;;;;;4999347;28;20161;-43
2023/02/08 12:03:14;;;;;;;7.97;4.85;;;4.50;99.90;;;;;;5001707;28;20103;-44
2023/02/08 12:05:59;;;;;;;8.45;4.68;;;4.60;99.90;;;;;;4998296;28;20497;-43
2023/02/08 12:08:37;;;;;;;5.75;4.28;;;4.60;99.90;;;;;;5000916;28;20033;-44
2023/02/08 12:11:02;;;;;;;5.13;4.30;;;4.70;99.90;;;;;;5000468;28;20022;-42
2023/02/08 12:13:41;;;;;;;6.47;4.60;;;4.70;99.90;;;;;;5000416;28;20030;-43
2023/02/08 12:16:44;;;;;;;5.43;4.20;;;4.80;99.90;;;;;;5000338;28;20032;-44
2023/02/08 12:19:33;;;;;;;5.82;4.53;;;4.90;99.90;;;;;;4999627;28;20029;-44
2023/02/08 12:22:04;;;;;;;7.63;4.65;;;4.90;99.90;;;;;;5000454;28;20040;-43
2023/02/08 12:24:48;;;;;;;4.47;4.03;;;5.00;99.90;;;;;;5000049;28;20749;-43
2023/02/08 12:27:26;;;;;;;6.40;4.25;;;5.10;99.90;;;;;;5000180;28;20802;-43
2023/02/08 12:30:03;;;;;;;5.18;4.18;;;5.10;99.90;;;;;;5000268;28;20034;-42
2023/02/08 12:32:38;;;;;;;5.97;4.40;;;5.10;99.90;;;;;;5000455;28;20108;-41
2023/02/08 12:35:22;;;;;;;5.10;3.63;;;5.20;99.90;;;;;;4999673;28;20120;-44
2023/02/08 12:41:33;;;;;;;5.22;3.42;;;5.30;99.90;;;;;;5000451;28;20452;-44
2023/02/08 12:44:34;;;;;;;6.22;3.70;;;5.40;99.90;;;;;;5000474;28;20041;-43
2023/02/08 12:47:25;;;;;;;5.18;3.50;;;5.40;99.90;;;;;;4998031;28;20206;-43
2023/02/08 12:50:01;;;;;;;4.30;3.53;;;5.50;99.90;;;;;;5000129;28;20053;-43
2023/02/08 12:52:42;;;;;;;5.40;3.72;;;5.50;99.90;;;;;;5004216;28;20061;-44
2023/02/08 12:55:20;;;;;;;5.55;3.47;;;5.50;99.90;;;;;;5004000;28;20508;-43
2023/02/08 12:58:11;;;;;;;4.50;3.50;;;5.60;99.90;;;;;;4993940;28;20879;-43
2023/02/08 13:00:39;;;;;;;4.40;3.60;;;5.60;99.90;;;;;;4999843;28;20085;-42
2023/02/08 13:03:32;;;;;;;5.10;3.80;;;5.60;99.90;;;;;;5003831;28;20509;-43
2023/02/08 13:05:57;;;;;;;4.47;3.40;;;5.70;99.90;;;;;;5003519;28;20647;-43
2023/02/08 13:08:59;;;;;;;4.97;3.53;;;5.70;99.90;;;;;;5004113;28;20032;-43
2023/02/08 13:11:30;;;;;;;3.95;3.15;;;5.70;99.90;;;;;;5004454;28;20029;-43